sensor_id;sensor_type;location;lat;lon;timestamp;pressure;altitude;pressure_sealevel;temperature;humidity
74615;BME280;63121;51.458;-0.110;2023-04-29T00:00:01;101658.28;;;13.99;60.77
74615;BME280;63121;51.458;-0.110;2023-04-29T00:02:26;101662.44;;;14.14;60.24
74615;BME280;63121;51.458;-0.110;2023-04-29T00:04:52;101661.41;;;14.32;59.79
74615;BME280;63121;51.458;-0.110;2023-04-29T00:07:18;101664.19;;;14.17;59.83
74615;BME280;63121;51.458;-0.110;2023-04-29T00:09:43;101659.97;;;14.05;60.21
74615;BME280;63121;51.458;-0.110;2023-04-29T00:12:09;101669.38;;;14.17;59.69
74615;BME280;63121;51.458;-0.110;2023-04-29T00:14:35;101667.06;;;13.85;60.44
74615;BME280;63121;51.458;-0.110;2023-04-29T00:17:01;101660.94;;;13.96;60.00
74615;BME280;63121;51.458;-0.110;2023-04-29T00:19:26;101662.03;;;13.71;60.62
74615;BME280;63121;51.458;-0.110;2023-04-29T00:21:52;101669.81;;;13.68;61.15
74615;BME280;63121;51.458;-0.110;2023-04-29T00:24:18;101669.72;;;13.78;60.64
74615;BME280;63121;51.458;-0.110;2023-04-29T00:26:44;101672.31;;;13.81;60.91
74615;BME280;63121;51.458;-0.110;2023-04-29T00:29:09;101669.81;;;13.71;61.09
74615;BME280;63121;51.458;-0.110;2023-04-29T00:31:35;101668.81;;;13.82;60.20
74615;BME280;63121;51.458;-0.110;2023-04-29T00:34:01;101665.28;;;13.93;60.61
74615;BME280;63121;51.458;-0.110;2023-04-29T00:36:27;101662.50;;;14.10;60.03
74615;BME280;63121;51.458;-0.110;2023-04-29T00:38:52;101672.25;;;13.86;60.50
74615;BME280;63121;51.458;-0.110;2023-04-29T00:41:18;101666.84;;;14.08;59.77
74615;BME280;63121;51.458;-0.110;2023-04-29T00:43:43;101678.16;;;14.03;59.89
74615;BME280;63121;51.458;-0.110;2023-04-29T00:46:09;101680.84;;;13.93;60.60
74615;BME280;63121;51.458;-0.110;2023-04-29T00:48:34;101675.66;;;13.93;60.27
74615;BME280;63121;51.458;-0.110;2023-04-29T00:51:00;101680.97;;;13.80;60.57
74615;BME280;63121;51.458;-0.110;2023-04-29T00:53:26;101676.66;;;13.79;60.61
74615;BME280;63121;51.458;-0.110;2023-04-29T00:55:52;101684.44;;;13.81;61.09
74615;BME280;63121;51.458;-0.110;2023-04-29T00:58:18;101684.22;;;14.01;59.92
74615;BME280;63121;51.458;-0.110;2023-04-29T01:00:44;101688.59;;;13.97;60.11
74615;BME280;63121;51.458;-0.110;2023-04-29T01:03:11;101691.31;;;13.83;61.04
74615;BME280;63121;51.458;-0.110;2023-04-29T01:05:37;101693.09;;;13.78;60.84
74615;BME280;63121;51.458;-0.110;2023-04-29T01:11:10;101681.84;;;13.78;60.82
74615;BME280;63121;51.458;-0.110;2023-04-29T01:13:42;101679.22;;;13.82;60.98
74615;BME280;63121;51.458;-0.110;2023-04-29T01:16:14;101685.34;;;13.74;61.07
74615;BME280;63121;51.458;-0.110;2023-04-29T01:18:44;101694.78;;;13.86;60.46
74615;BME280;63121;51.458;-0.110;2023-04-29T01:21:10;101693.09;;;13.80;60.84
74615;BME280;63121;51.458;-0.110;2023-04-29T01:23:35;101678.41;;;13.76;61.38
74615;BME280;63121;51.458;-0.110;2023-04-29T01:26:01;101687.13;;;13.67;61.29
74615;BME280;63121;51.458;-0.110;2023-04-29T01:28:54;101687.94;;;13.75;61.25
74615;BME280;63121;51.458;-0.110;2023-04-29T01:31:45;101691.44;;;13.73;61.15
74615;BME280;63121;51.458;-0.110;2023-04-29T01:34:30;101692.28;;;13.73;61.28
74615;BME280;63121;51.458;-0.110;2023-04-29T01:37:13;101698.41;;;13.65;61.42
74615;BME280;63121;51.458;-0.110;2023-04-29T01:40:16;101697.56;;;13.64;61.53
74615;BME280;63121;51.458;-0.110;2023-04-29T01:42:48;101702.84;;;13.50;61.80
74615;BME280;63121;51.458;-0.110;2023-04-29T01:45:18;101701.22;;;13.32;61.97
74615;BME280;63121;51.458;-0.110;2023-04-29T01:47:46;101705.53;;;13.35;61.52
74615;BME280;63121;51.458;-0.110;2023-04-29T01:50:11;101705.59;;;13.19;62.39
74615;BME280;63121;51.458;-0.110;2023-04-29T01:52:37;101704.81;;;13.08;62.81
74615;BME280;63121;51.458;-0.110;2023-04-29T01:55:03;101699.56;;;13.20;61.79
74615;BME280;63121;51.458;-0.110;2023-04-29T01:57:28;101705.56;;;13.27;61.69
74615;BME280;63121;51.458;-0.110;2023-04-29T01:59:54;101694.41;;;13.14;62.15
74615;BME280;63121;51.458;-0.110;2023-04-29T02:02:19;101701.47;;;12.86;63.13
74615;BME280;63121;51.458;-0.110;2023-04-29T02:04:47;101700.56;;;12.92;62.96
74615;BME280;63121;51.458;-0.110;2023-04-29T02:07:13;101706.56;;;13.00;62.95
74615;BME280;63121;51.458;-0.110;2023-04-29T02:09:39;101712.72;;;12.82;63.66
74615;BME280;63121;51.458;-0.110;2023-04-29T02:12:04;101706.63;;;12.91;63.70
74615;BME280;63121;51.458;-0.110;2023-04-29T02:14:30;101711.81;;;12.89;63.37
74615;BME280;63121;51.458;-0.110;2023-04-29T02:16:55;101711.72;;;13.06;62.85
74615;BME280;63121;51.458;-0.110;2023-04-29T02:19:21;101716.13;;;12.93;62.72
74615;BME280;63121;51.458;-0.110;2023-04-29T02:21:46;101708.34;;;12.92;62.24
74615;BME280;63121;51.458;-0.110;2023-04-29T02:24:12;101717.84;;;12.93;62.58
74615;BME280;63121;51.458;-0.110;2023-04-29T02:26:37;101712.69;;;12.85;62.05
74615;BME280;63121;51.458;-0.110;2023-04-29T02:29:03;101719.63;;;12.78;62.57
74615;BME280;63121;51.458;-0.110;2023-04-29T02:31:28;101711.84;;;12.85;62.61
74615;BME280;63121;51.458;-0.110;2023-04-29T02:33:53;101716.19;;;12.76;62.78
74615;BME280;63121;51.458;-0.110;2023-04-29T02:36:19;101717.94;;;12.70;63.04
74615;BME280;63121;51.458;-0.110;2023-04-29T02:38:45;101713.63;;;12.70;62.67
74615;BME280;63121;51.458;-0.110;2023-04-29T02:41:15;101712.75;;;12.74;62.73
74615;BME280;63121;51.458;-0.110;2023-04-29T02:43:41;101713.63;;;12.70;62.58
74615;BME280;63121;51.458;-0.110;2023-04-29T02:46:06;101716.25;;;12.56;62.71
74615;BME280;63121;51.458;-0.110;2023-04-29T02:48:31;101731.78;;;12.58;62.54
74615;BME280;63121;51.458;-0.110;2023-04-29T02:50:57;101730.09;;;12.48;62.82
74615;BME280;63121;51.458;-0.110;2023-04-29T02:53:22;101730.06;;;12.54;62.93
74615;BME280;63121;51.458;-0.110;2023-04-29T02:55:47;101734.41;;;12.47;63.23
74615;BME280;63121;51.458;-0.110;2023-04-29T02:58:13;101730.94;;;12.56;62.57
74615;BME280;63121;51.458;-0.110;2023-04-29T03:00:40;101740.47;;;12.41;63.38
74615;BME280;63121;51.458;-0.110;2023-04-29T03:03:05;101738.75;;;12.37;63.21
74615;BME280;63121;51.458;-0.110;2023-04-29T03:05:30;101740.53;;;12.23;63.95
74615;BME280;63121;51.458;-0.110;2023-04-29T03:07:56;101751.72;;;12.34;63.31
74615;BME280;63121;51.458;-0.110;2023-04-29T03:10:21;101749.97;;;12.36;63.24
74615;BME280;63121;51.458;-0.110;2023-04-29T03:12:46;101742.28;;;11.93;64.28
74615;BME280;63121;51.458;-0.110;2023-04-29T03:15:12;101752.56;;;12.23;63.68
74615;BME280;63121;51.458;-0.110;2023-04-29T03:17:37;101749.97;;;12.36;63.42
74615;BME280;63121;51.458;-0.110;2023-04-29T03:20:03;101752.59;;;12.33;63.18
74615;BME280;63121;51.458;-0.110;2023-04-29T03:22:29;101749.16;;;12.13;63.97
74615;BME280;63121;51.458;-0.110;2023-04-29T03:24:54;101748.28;;;12.26;63.38
74615;BME280;63121;51.458;-0.110;2023-04-29T03:27:20;101747.41;;;12.13;63.63
74615;BME280;63121;51.458;-0.110;2023-04-29T03:29:45;101743.97;;;12.10;64.06
74615;BME280;63121;51.458;-0.110;2023-04-29T03:32:10;101746.56;;;12.05;64.13
74615;BME280;63121;51.458;-0.110;2023-04-29T03:34:36;101745.69;;;12.17;63.97
74615;BME280;63121;51.458;-0.110;2023-04-29T03:37:01;101743.13;;;12.12;63.73
74615;BME280;63121;51.458;-0.110;2023-04-29T03:39:26;101756.91;;;12.19;63.71
74615;BME280;63121;51.458;-0.110;2023-04-29T03:41:56;101751.75;;;12.19;63.26
74615;BME280;63121;51.458;-0.110;2023-04-29T03:44:22;101750.00;;;12.24;63.06
74615;BME280;63121;51.458;-0.110;2023-04-29T03:46:47;101753.47;;;12.15;63.17
74615;BME280;63121;51.458;-0.110;2023-04-29T03:49:13;101751.75;;;12.00;63.76
74615;BME280;63121;51.458;-0.110;2023-04-29T03:51:38;101756.94;;;11.90;63.83
74615;BME280;63121;51.458;-0.110;2023-04-29T03:54:04;101753.44;;;11.88;63.92
74615;BME280;63121;51.458;-0.110;2023-04-29T03:56:29;101758.59;;;11.86;63.95
74615;BME280;63121;51.458;-0.110;2023-04-29T03:58:59;101759.50;;;11.85;63.47
74615;BME280;63121;51.458;-0.110;2023-04-29T04:01:25;101759.50;;;11.90;63.56
74615;BME280;63121;51.458;-0.110;2023-04-29T04:03:57;101756.00;;;11.74;63.62
74615;BME280;63121;51.458;-0.110;2023-04-29T04:06:23;101756.03;;;11.71;63.82
74615;BME280;63121;51.458;-0.110;2023-04-29T04:08:48;101753.41;;;11.68;64.06
74615;BME280;63121;51.458;-0.110;2023-04-29T04:11:14;101756.88;;;11.76;64.19
74615;BME280;63121;51.458;-0.110;2023-04-29T04:13:41;101756.06;;;11.89;63.74
74615;BME280;63121;51.458;-0.110;2023-04-29T04:16:08;101753.44;;;11.75;63.94
74615;BME280;63121;51.458;-0.110;2023-04-29T04:18:35;101756.03;;;11.71;64.25
74615;BME280;63121;51.458;-0.110;2023-04-29T04:21:08;101768.94;;;11.60;64.78
74615;BME280;63121;51.458;-0.110;2023-04-29T04:23:34;101768.94;;;11.54;64.73
74615;BME280;63121;51.458;-0.110;2023-04-29T04:26:00;101776.69;;;11.60;64.01
74615;BME280;63121;51.458;-0.110;2023-04-29T04:28:35;101774.06;;;11.45;64.29
74615;BME280;63121;51.458;-0.110;2023-04-29T04:31:01;101787.03;;;11.52;63.95
74615;BME280;63121;51.458;-0.110;2023-04-29T04:33:27;101789.56;;;11.45;64.18
74615;BME280;63121;51.458;-0.110;2023-04-29T04:35:52;101787.88;;;11.54;63.65
74615;BME280;63121;51.458;-0.110;2023-04-29T04:38:18;101796.47;;;11.41;64.25
74615;BME280;63121;51.458;-0.110;2023-04-29T04:40:43;101797.34;;;11.51;63.81
74615;BME280;63121;51.458;-0.110;2023-04-29T04:43:09;101804.25;;;11.52;63.67
74615;BME280;63121;51.458;-0.110;2023-04-29T04:45:35;101812.00;;;11.47;64.25
74615;BME280;63121;51.458;-0.110;2023-04-29T04:48:01;101809.44;;;11.50;63.74
74615;BME280;63121;51.458;-0.110;2023-04-29T04:50:28;101806.84;;;11.61;63.48
74615;BME280;63121;51.458;-0.110;2023-04-29T04:52:54;101812.91;;;11.55;64.06
74615;BME280;63121;51.458;-0.110;2023-04-29T04:55:21;101816.38;;;11.71;63.50
74615;BME280;63121;51.458;-0.110;2023-04-29T04:57:46;101823.25;;;11.68;63.92
74615;BME280;63121;51.458;-0.110;2023-04-29T05:00:12;101829.38;;;11.90;63.60
74615;BME280;63121;51.458;-0.110;2023-04-29T05:02:37;101825.91;;;12.02;63.02
74615;BME280;63121;51.458;-0.110;2023-04-29T05:05:03;101837.16;;;12.14;62.98
74615;BME280;63121;51.458;-0.110;2023-04-29T05:07:29;101843.19;;;12.32;62.86
74615;BME280;63121;51.458;-0.110;2023-04-29T05:09:54;101853.56;;;12.30;62.69
74615;BME280;63121;51.458;-0.110;2023-04-29T05:12:20;101850.94;;;12.39;62.83
74615;BME280;63121;51.458;-0.110;2023-04-29T05:14:46;101850.06;;;12.56;62.05
74615;BME280;63121;51.458;-0.110;2023-04-29T05:17:11;101854.38;;;12.71;62.12
74615;BME280;63121;51.458;-0.110;2023-04-29T05:19:37;101857.84;;;12.62;62.21
74615;BME280;63121;51.458;-0.110;2023-04-29T05:22:03;101860.41;;;12.88;61.29
74615;BME280;63121;51.458;-0.110;2023-04-29T05:24:28;101865.53;;;13.04;61.02
74615;BME280;63121;51.458;-0.110;2023-04-29T05:26:54;101862.94;;;13.11;61.00
74615;BME280;63121;51.458;-0.110;2023-04-29T05:29:19;101859.47;;;13.11;61.50
74615;BME280;63121;51.458;-0.110;2023-04-29T05:31:45;101860.34;;;13.04;61.23
74615;BME280;63121;51.458;-0.110;2023-04-29T05:34:10;101863.78;;;13.10;61.46
74615;BME280;63121;51.458;-0.110;2023-04-29T05:36:36;101862.84;;;13.34;61.28
74615;BME280;63121;51.458;-0.110;2023-04-29T05:39:02;101861.94;;;13.52;60.95
74615;BME280;63121;51.458;-0.110;2023-04-29T05:41:27;101873.97;;;13.62;60.42
74615;BME280;63121;51.458;-0.110;2023-04-29T05:43:53;101861.84;;;13.68;60.05
74615;BME280;63121;51.458;-0.110;2023-04-29T05:46:18;101866.09;;;13.78;60.38
74615;BME280;63121;51.458;-0.110;2023-04-29T05:48:44;101858.34;;;13.72;60.26
74615;BME280;63121;51.458;-0.110;2023-04-29T05:51:11;101866.13;;;13.72;60.19
74615;BME280;63121;51.458;-0.110;2023-04-29T05:53:37;101862.66;;;13.76;59.98
74615;BME280;63121;51.458;-0.110;2023-04-29T05:56:03;101863.72;;;13.38;60.53
74615;BME280;63121;51.458;-0.110;2023-04-29T05:58:32;101862.72;;;13.68;60.02
74615;BME280;63121;51.458;-0.110;2023-04-29T06:00:57;101863.75;;;13.35;60.59
74615;BME280;63121;51.458;-0.110;2023-04-29T06:03:23;101852.41;;;13.54;60.41
74615;BME280;63121;51.458;-0.110;2023-04-29T06:05:48;101857.53;;;13.63;60.26
74615;BME280;63121;51.458;-0.110;2023-04-29T06:08:14;101857.34;;;13.96;59.68
74615;BME280;63121;51.458;-0.110;2023-04-29T06:10:39;101859.03;;;14.05;59.09
74615;BME280;63121;51.458;-0.110;2023-04-29T06:13:05;101860.53;;;14.32;58.14
74615;BME280;63121;51.458;-0.110;2023-04-29T06:15:30;101858.94;;;14.17;58.77
74615;BME280;63121;51.458;-0.110;2023-04-29T06:17:56;101864.03;;;14.26;58.21
74615;BME280;63121;51.458;-0.110;2023-04-29T06:20:22;101863.09;;;14.33;57.68
74615;BME280;63121;51.458;-0.110;2023-04-29T06:22:47;101871.63;;;14.51;57.37
74615;BME280;63121;51.458;-0.110;2023-04-29T06:25:13;101864.56;;;14.68;57.02
74615;BME280;63121;51.458;-0.110;2023-04-29T06:27:39;101868.31;;;14.35;57.04
74615;BME280;63121;51.458;-0.110;2023-04-29T06:30:05;101875.28;;;14.25;57.52
74615;BME280;63121;51.458;-0.110;2023-04-29T06:32:31;101871.81;;;14.29;58.01
74615;BME280;63121;51.458;-0.110;2023-04-29T06:34:56;101867.28;;;14.57;57.12
74615;BME280;63121;51.458;-0.110;2023-04-29T06:37:22;101881.13;;;14.59;56.74
74615;BME280;63121;51.458;-0.110;2023-04-29T06:39:47;101872.97;;;14.95;55.80
74615;BME280;63121;51.458;-0.110;2023-04-29T06:42:12;101873.22;;;14.69;56.25
74615;BME280;63121;51.458;-0.110;2023-04-29T06:44:38;101878.50;;;14.61;56.56
74615;BME280;63121;51.458;-0.110;2023-04-29T06:47:03;101880.06;;;14.77;55.73
74615;BME280;63121;51.458;-0.110;2023-04-29T06:49:29;101881.56;;;15.00;55.21
74615;BME280;63121;51.458;-0.110;2023-04-29T06:51:55;101894.34;;;15.20;54.79
74615;BME280;63121;51.458;-0.110;2023-04-29T06:54:20;101896.34;;;14.96;55.25
74615;BME280;63121;51.458;-0.110;2023-04-29T06:56:46;101899.66;;;15.12;54.51
74615;BME280;63121;51.458;-0.110;2023-04-29T06:59:12;101902.06;;;15.28;54.03
74615;BME280;63121;51.458;-0.110;2023-04-29T07:01:39;101899.25;;;15.48;53.68
74615;BME280;63121;51.458;-0.110;2023-04-29T07:04:04;101900.44;;;15.20;54.65
74615;BME280;63121;51.458;-0.110;2023-04-29T07:06:30;101895.09;;;15.33;54.18
74615;BME280;63121;51.458;-0.110;2023-04-29T07:08:56;101899.88;;;15.63;53.56
74615;BME280;63121;51.458;-0.110;2023-04-29T07:11:21;101902.97;;;15.27;54.42
74615;BME280;63121;51.458;-0.110;2023-04-29T07:13:49;101906.50;;;15.21;54.92
74615;BME280;63121;51.458;-0.110;2023-04-29T07:16:18;101912.59;;;15.18;55.15
74615;BME280;63121;51.458;-0.110;2023-04-29T07:18:47;101922.88;;;15.31;54.28
74615;BME280;63121;51.458;-0.110;2023-04-29T07:21:13;101925.31;;;14.50;56.23
74615;BME280;63121;51.458;-0.110;2023-04-29T07:23:39;101924.44;;;14.59;55.92
74615;BME280;63121;51.458;-0.110;2023-04-29T07:26:09;101925.09;;;14.82;55.34
74615;BME280;63121;51.458;-0.110;2023-04-29T07:28:35;101922.09;;;15.21;54.17
74615;BME280;63121;51.458;-0.110;2023-04-29T07:31:00;101929.97;;;15.15;54.85
74615;BME280;63121;51.458;-0.110;2023-04-29T07:33:25;101933.41;;;15.15;55.10
74615;BME280;63121;51.458;-0.110;2023-04-29T07:35:51;101933.47;;;15.14;54.82
74615;BME280;63121;51.458;-0.110;2023-04-29T07:38:16;101933.78;;;15.59;53.78
74615;BME280;63121;51.458;-0.110;2023-04-29T07:40:42;101935.38;;;15.74;53.42
74615;BME280;63121;51.458;-0.110;2023-04-29T07:43:07;101932.47;;;15.97;52.83
74615;BME280;63121;51.458;-0.110;2023-04-29T07:45:33;101940.19;;;16.01;52.76
74615;BME280;63121;51.458;-0.110;2023-04-29T07:47:59;101938.75;;;15.82;53.43
74615;BME280;63121;51.458;-0.110;2023-04-29T07:50:24;101946.34;;;15.23;53.96
74615;BME280;63121;51.458;-0.110;2023-04-29T07:52:50;101949.56;;;15.47;53.16
74615;BME280;63121;51.458;-0.110;2023-04-29T07:55:15;101948.16;;;15.16;54.09
74615;BME280;63121;51.458;-0.110;2023-04-29T07:57:40;101949.00;;;15.18;53.59
74615;BME280;63121;51.458;-0.110;2023-04-29T08:00:06;101942.38;;;15.64;52.36
74615;BME280;63121;51.458;-0.110;2023-04-29T08:02:32;101942.66;;;15.41;53.31
74615;BME280;63121;51.458;-0.110;2023-04-29T08:04:57;101950.34;;;15.53;52.80
74615;BME280;63121;51.458;-0.110;2023-04-29T08:07:22;101952.72;;;15.75;53.00
74615;BME280;63121;51.458;-0.110;2023-04-29T08:09:48;101955.16;;;15.87;52.21
74615;BME280;63121;51.458;-0.110;2023-04-29T08:12:13;101954.97;;;15.99;51.54
74615;BME280;63121;51.458;-0.110;2023-04-29T08:14:39;101958.41;;;16.03;51.53
74615;BME280;63121;51.458;-0.110;2023-04-29T08:17:04;101957.19;;;16.27;51.68
74615;BME280;63121;51.458;-0.110;2023-04-29T08:19:29;101946.31;;;16.55;50.58
74615;BME280;63121;51.458;-0.110;2023-04-29T08:21:55;101959.34;;;16.58;50.51
74615;BME280;63121;51.458;-0.110;2023-04-29T08:24:21;101948.78;;;16.10;51.36
74615;BME280;63121;51.458;-0.110;2023-04-29T08:26:46;101953.63;;;16.34;50.85
74615;BME280;63121;51.458;-0.110;2023-04-29T08:29:12;101953.81;;;16.22;51.37
74615;BME280;63121;51.458;-0.110;2023-04-29T08:31:37;101956.16;;;16.37;50.73
74615;BME280;63121;51.458;-0.110;2023-04-29T08:34:03;101961.81;;;16.65;49.74
74615;BME280;63121;51.458;-0.110;2023-04-29T08:36:28;101951.63;;;17.03;49.56
74615;BME280;63121;51.458;-0.110;2023-04-29T08:38:54;101958.78;;;16.92;49.80
74615;BME280;63121;51.458;-0.110;2023-04-29T08:41:20;101955.47;;;16.26;51.34
74615;BME280;63121;51.458;-0.110;2023-04-29T08:43:45;101967.53;;;16.89;49.16
74615;BME280;63121;51.458;-0.110;2023-04-29T08:46:11;101965.56;;;16.48;50.19
74615;BME280;63121;51.458;-0.110;2023-04-29T08:48:37;101963.88;;;16.46;50.31
74615;BME280;63121;51.458;-0.110;2023-04-29T08:51:06;101962.13;;;16.45;50.81
74615;BME280;63121;51.458;-0.110;2023-04-29T08:53:32;101963.09;;;16.93;49.70
74615;BME280;63121;51.458;-0.110;2023-04-29T08:56:03;101968.38;;;16.90;49.70
74615;BME280;63121;51.458;-0.110;2023-04-29T08:58:33;101972.00;;;16.79;49.75
74615;BME280;63121;51.458;-0.110;2023-04-29T09:00:59;101976.47;;;16.71;49.73
74615;BME280;63121;51.458;-0.110;2023-04-29T09:03:42;101971.84;;;17.38;48.11
74615;BME280;63121;51.458;-0.110;2023-04-29T09:06:08;101974.22;;;17.05;49.07
74615;BME280;63121;51.458;-0.110;2023-04-29T09:08:35;101976.13;;;17.41;48.38
74615;BME280;63121;51.458;-0.110;2023-04-29T09:11:01;101980.19;;;17.57;48.03
74615;BME280;63121;51.458;-0.110;2023-04-29T09:13:28;101981.97;;;16.56;49.89
74615;BME280;63121;51.458;-0.110;2023-04-29T09:15:54;101983.41;;;17.25;48.61
74615;BME280;63121;51.458;-0.110;2023-04-29T09:18:43;101982.31;;;16.89;49.94
74615;BME280;63121;51.458;-0.110;2023-04-29T09:21:16;101982.91;;;17.50;48.53
74615;BME280;63121;51.458;-0.110;2023-04-29T09:23:42;101985.06;;;17.73;47.50
74615;BME280;63121;51.458;-0.110;2023-04-29T09:26:08;101987.22;;;17.96;46.37
74615;BME280;63121;51.458;-0.110;2023-04-29T09:28:33;101994.44;;;17.84;46.04
74615;BME280;63121;51.458;-0.110;2023-04-29T09:31:01;101994.66;;;17.72;45.82
74615;BME280;63121;51.458;-0.110;2023-04-29T09:33:26;101990.63;;;18.01;45.18
74615;BME280;63121;51.458;-0.110;2023-04-29T09:35:55;101986.66;;;17.36;47.14
74615;BME280;63121;51.458;-0.110;2023-04-29T09:38:20;101991.31;;;17.65;46.45
74615;BME280;63121;51.458;-0.110;2023-04-29T09:40:46;101992.75;;;17.80;46.26
74615;BME280;63121;51.458;-0.110;2023-04-29T09:43:16;101990.69;;;18.37;44.25
74615;BME280;63121;51.458;-0.110;2023-04-29T09:45:47;101990.19;;;18.19;45.40
74615;BME280;63121;51.458;-0.110;2023-04-29T09:48:13;101989.91;;;18.32;45.18
74615;BME280;63121;51.458;-0.110;2023-04-29T09:50:41;101995.31;;;17.83;45.31
74615;BME280;63121;51.458;-0.110;2023-04-29T09:53:09;102004.00;;;17.85;45.67
74615;BME280;63121;51.458;-0.110;2023-04-29T09:55:35;101993.53;;;17.87;45.72
74615;BME280;63121;51.458;-0.110;2023-04-29T09:58:01;101989.28;;;18.22;44.71
74615;BME280;63121;51.458;-0.110;2023-04-29T10:00:30;101989.50;;;18.87;43.47
74615;BME280;63121;51.458;-0.110;2023-04-29T10:02:59;101995.50;;;18.91;43.14
74615;BME280;63121;51.458;-0.110;2023-04-29T10:05:27;101992.16;;;18.84;42.85
74615;BME280;63121;51.458;-0.110;2023-04-29T10:07:55;101988.28;;;18.27;44.17
74615;BME280;63121;51.458;-0.110;2023-04-29T10:10:22;101990.81;;;18.68;43.34
74615;BME280;63121;51.458;-0.110;2023-04-29T10:12:53;101989.47;;;18.52;43.62
74615;BME280;63121;51.458;-0.110;2023-04-29T10:15:34;102000.31;;;18.72;43.02
74615;BME280;63121;51.458;-0.110;2023-04-29T10:18:25;101993.31;;;19.08;42.55
74615;BME280;63121;51.458;-0.110;2023-04-29T10:20:56;101995.13;;;19.05;42.65
74615;BME280;63121;51.458;-0.110;2023-04-29T10:23:23;101992.84;;;18.93;43.09
74615;BME280;63121;51.458;-0.110;2023-04-29T10:25:51;101988.41;;;18.95;42.72
74615;BME280;63121;51.458;-0.110;2023-04-29T10:28:17;101989.75;;;19.11;42.66
74615;BME280;63121;51.458;-0.110;2023-04-29T10:30:44;101998.13;;;18.16;44.90
74615;BME280;63121;51.458;-0.110;2023-04-29T10:33:15;101997.69;;;19.08;42.79
74615;BME280;63121;51.458;-0.110;2023-04-29T10:35:42;102000.41;;;19.03;42.58
74615;BME280;63121;51.458;-0.110;2023-04-29T10:38:35;101998.19;;;18.88;42.95
74615;BME280;63121;51.458;-0.110;2023-04-29T10:41:12;101988.16;;;19.38;42.16
74615;BME280;63121;51.458;-0.110;2023-04-29T10:43:39;101994.41;;;19.00;42.79
74615;BME280;63121;51.458;-0.110;2023-04-29T10:46:24;101990.97;;;19.30;42.32
74615;BME280;63121;51.458;-0.110;2023-04-29T10:48:59;101988.47;;;19.26;42.34
74615;BME280;63121;51.458;-0.110;2023-04-29T10:54:05;101986.41;;;19.70;42.28
74615;BME280;63121;51.458;-0.110;2023-04-29T10:59:03;101997.75;;;18.69;43.55
74615;BME280;63121;51.458;-0.110;2023-04-29T11:01:42;101989.06;;;19.04;43.63
74615;BME280;63121;51.458;-0.110;2023-04-29T11:04:07;101991.44;;;19.45;42.50
74615;BME280;63121;51.458;-0.110;2023-04-29T11:09:25;101988.00;;;19.76;42.01
74615;BME280;63121;51.458;-0.110;2023-04-29T11:14:49;101978.81;;;19.59;42.80
74615;BME280;63121;51.458;-0.110;2023-04-29T11:17:17;101979.00;;;19.53;42.16
74615;BME280;63121;51.458;-0.110;2023-04-29T11:19:48;101976.66;;;19.44;42.19
74615;BME280;63121;51.458;-0.110;2023-04-29T11:24:50;101983.06;;;19.95;41.18
74615;BME280;63121;51.458;-0.110;2023-04-29T11:27:17;101973.41;;;19.97;41.07
74615;BME280;63121;51.458;-0.110;2023-04-29T11:29:48;101982.94;;;19.68;42.79
74615;BME280;63121;51.458;-0.110;2023-04-29T11:32:14;101985.38;;;19.76;42.85
74615;BME280;63121;51.458;-0.110;2023-04-29T11:34:39;101989.81;;;19.74;42.75
74615;BME280;63121;51.458;-0.110;2023-04-29T11:37:04;101979.78;;;20.16;41.85
74615;BME280;63121;51.458;-0.110;2023-04-29T11:39:34;101979.16;;;19.80;41.51
74615;BME280;63121;51.458;-0.110;2023-04-29T11:42:06;101978.63;;;19.36;42.45
74615;BME280;63121;51.458;-0.110;2023-04-29T11:44:33;101973.81;;;19.83;41.74
74615;BME280;63121;51.458;-0.110;2023-04-29T11:47:05;101971.00;;;19.89;42.29
74615;BME280;63121;51.458;-0.110;2023-04-29T11:49:32;101978.50;;;19.72;42.42
74615;BME280;63121;51.458;-0.110;2023-04-29T11:51:58;101972.38;;;19.71;42.75
74615;BME280;63121;51.458;-0.110;2023-04-29T11:54:28;101970.19;;;19.87;42.11
74615;BME280;63121;51.458;-0.110;2023-04-29T11:56:54;101969.81;;;20.27;41.16
74615;BME280;63121;51.458;-0.110;2023-04-29T11:59:20;101964.66;;;20.51;40.36
74615;BME280;63121;51.458;-0.110;2023-04-29T12:01:46;101971.47;;;20.58;41.08
74615;BME280;63121;51.458;-0.110;2023-04-29T12:04:12;101978.00;;;20.17;41.31
74615;BME280;63121;51.458;-0.110;2023-04-29T12:06:37;101975.00;;;20.29;40.41
74615;BME280;63121;51.458;-0.110;2023-04-29T12:09:03;101975.66;;;20.64;40.11
74615;BME280;63121;51.458;-0.110;2023-04-29T12:11:28;101976.97;;;20.49;39.65
74615;BME280;63121;51.458;-0.110;2023-04-29T12:13:55;101973.44;;;20.51;40.42
74615;BME280;63121;51.458;-0.110;2023-04-29T12:16:21;101968.53;;;20.67;39.67
74615;BME280;63121;51.458;-0.110;2023-04-29T12:18:49;101971.69;;;20.79;39.57
74615;BME280;63121;51.458;-0.110;2023-04-29T12:21:15;101974.06;;;20.31;40.96
74615;BME280;63121;51.458;-0.110;2023-04-29T12:23:41;101967.03;;;20.60;40.82
74615;BME280;63121;51.458;-0.110;2023-04-29T12:26:07;101965.97;;;20.66;40.03
74615;BME280;63121;51.458;-0.110;2023-04-29T12:28:33;101964.91;;;20.71;40.61
74615;BME280;63121;51.458;-0.110;2023-04-29T12:30:59;101962.22;;;21.00;39.39
74615;BME280;63121;51.458;-0.110;2023-04-29T12:33:28;101955.78;;;20.83;40.07
74615;BME280;63121;51.458;-0.110;2023-04-29T12:35:57;101966.00;;;20.91;39.58
74615;BME280;63121;51.458;-0.110;2023-04-29T12:40:52;101962.75;;;20.29;41.28
74615;BME280;63121;51.458;-0.110;2023-04-29T12:43:17;101960.84;;;20.88;39.65
74615;BME280;63121;51.458;-0.110;2023-04-29T12:45:43;101961.63;;;20.65;40.21
74615;BME280;63121;51.458;-0.110;2023-04-29T12:48:10;101966.38;;;21.05;39.63
74615;BME280;63121;51.458;-0.110;2023-04-29T12:50:36;101966.00;;;21.16;39.11
74615;BME280;63121;51.458;-0.110;2023-04-29T12:53:03;101970.22;;;21.45;38.07
74615;BME280;63121;51.458;-0.110;2023-04-29T12:55:31;101962.41;;;21.67;37.18
74615;BME280;63121;51.458;-0.110;2023-04-29T12:57:57;101961.91;;;21.32;38.48